sensor_id;sensor_type;location;lat;lon;timestamp;P1;durP1;ratioP1;P2;durP2;ratioP2
47113;SDS011;32867;51.556;6.832;2023-03-23T00:02:40;6.30;;;2.58;;
47113;SDS011;32867;51.556;6.832;2023-03-23T00:07:40;5.07;;;2.55;;
47113;SDS011;32867;51.556;6.832;2023-03-23T00:12:45;4.68;;;2.72;;
47113;SDS011;32867;51.556;6.832;2023-03-23T00:17:49;6.60;;;2.85;;
47113;SDS011;32867;51.556;6.832;2023-03-23T00:22:51;6.78;;;2.80;;
47113;SDS011;32867;51.556;6.832;2023-03-23T00:27:51;6.68;;;2.85;;
47113;SDS011;32867;51.556;6.832;2023-03-23T00:32:52;4.50;;;2.55;;
47113;SDS011;32867;51.556;6.832;2023-03-23T00:37:52;4.43;;;2.80;;
47113;SDS011;32867;51.556;6.832;2023-03-23T00:42:55;5.93;;;2.60;;
47113;SDS011;32867;51.556;6.832;2023-03-23T00:47:56;5.07;;;3.22;;
47113;SDS011;32867;51.556;6.832;2023-03-23T00:53:03;6.90;;;3.53;;
47113;SDS011;32867;51.556;6.832;2023-03-23T00:58:04;5.90;;;3.03;;
47113;SDS011;32867;51.556;6.832;2023-03-23T01:03:06;5.57;;;2.90;;
47113;SDS011;32867;51.556;6.832;2023-03-23T01:08:07;7.68;;;3.00;;
47113;SDS011;32867;51.556;6.832;2023-03-23T01:13:08;5.32;;;2.70;;
47113;SDS011;32867;51.556;6.832;2023-03-23T01:18:09;6.40;;;2.88;;
47113;SDS011;32867;51.556;6.832;2023-03-23T01:23:10;4.93;;;2.60;;
47113;SDS011;32867;51.556;6.832;2023-03-23T01:28:10;4.72;;;2.55;;
47113;SDS011;32867;51.556;6.832;2023-03-23T01:33:11;4.63;;;2.75;;
47113;SDS011;32867;51.556;6.832;2023-03-23T01:38:12;4.32;;;2.60;;
47113;SDS011;32867;51.556;6.832;2023-03-23T01:43:14;3.58;;;2.33;;
47113;SDS011;32867;51.556;6.832;2023-03-23T01:48:22;4.45;;;2.80;;
47113;SDS011;32867;51.556;6.832;2023-03-23T01:53:28;4.80;;;2.42;;
47113;SDS011;32867;51.556;6.832;2023-03-23T01:58:34;4.30;;;2.40;;
47113;SDS011;32867;51.556;6.832;2023-03-23T02:03:39;5.25;;;2.58;;
47113;SDS011;32867;51.556;6.832;2023-03-23T02:08:42;4.82;;;2.88;;
47113;SDS011;32867;51.556;6.832;2023-03-23T02:13:45;5.00;;;2.40;;
47113;SDS011;32867;51.556;6.832;2023-03-23T02:18:50;5.53;;;2.67;;
47113;SDS011;32867;51.556;6.832;2023-03-23T02:34:39;4.95;;;3.03;;
47113;SDS011;32867;51.556;6.832;2023-03-23T02:39:45;7.70;;;2.80;;
47113;SDS011;32867;51.556;6.832;2023-03-23T02:44:50;6.03;;;3.00;;
47113;SDS011;32867;51.556;6.832;2023-03-23T02:49:53;4.50;;;2.60;;
47113;SDS011;32867;51.556;6.832;2023-03-23T02:54:56;5.15;;;2.53;;
47113;SDS011;32867;51.556;6.832;2023-03-23T02:59:59;7.38;;;3.45;;
47113;SDS011;32867;51.556;6.832;2023-03-23T03:10:24;6.47;;;3.13;;
47113;SDS011;32867;51.556;6.832;2023-03-23T03:21:02;5.13;;;2.50;;
47113;SDS011;32867;51.556;6.832;2023-03-23T03:26:09;4.40;;;2.28;;
47113;SDS011;32867;51.556;6.832;2023-03-23T03:31:23;4.13;;;2.53;;
47113;SDS011;32867;51.556;6.832;2023-03-23T03:41:41;4.57;;;2.28;;
47113;SDS011;32867;51.556;6.832;2023-03-23T03:46:42;4.55;;;2.70;;
47113;SDS011;32867;51.556;6.832;2023-03-23T03:51:46;5.63;;;2.63;;
47113;SDS011;32867;51.556;6.832;2023-03-23T03:56:53;3.13;;;2.20;;
47113;SDS011;32867;51.556;6.832;2023-03-23T04:02:20;4.10;;;2.35;;
47113;SDS011;32867;51.556;6.832;2023-03-23T04:07:23;4.65;;;2.17;;
47113;SDS011;32867;51.556;6.832;2023-03-23T04:12:26;4.30;;;2.40;;
47113;SDS011;32867;51.556;6.832;2023-03-23T04:17:29;5.38;;;2.25;;
47113;SDS011;32867;51.556;6.832;2023-03-23T04:22:31;5.47;;;2.67;;
47113;SDS011;32867;51.556;6.832;2023-03-23T04:27:33;5.20;;;2.95;;
47113;SDS011;32867;51.556;6.832;2023-03-23T04:32:36;5.05;;;2.42;;
47113;SDS011;32867;51.556;6.832;2023-03-23T04:37:41;7.20;;;3.33;;
47113;SDS011;32867;51.556;6.832;2023-03-23T04:42:44;6.35;;;3.10;;
47113;SDS011;32867;51.556;6.832;2023-03-23T04:47:52;8.25;;;3.10;;
47113;SDS011;32867;51.556;6.832;2023-03-23T04:52:57;6.45;;;3.03;;
47113;SDS011;32867;51.556;6.832;2023-03-23T04:57:59;5.43;;;3.10;;
47113;SDS011;32867;51.556;6.832;2023-03-23T05:03:12;8.02;;;3.58;;
47113;SDS011;32867;51.556;6.832;2023-03-23T05:08:18;6.93;;;3.70;;
47113;SDS011;32867;51.556;6.832;2023-03-23T05:13:20;7.80;;;3.45;;
47113;SDS011;32867;51.556;6.832;2023-03-23T05:18:28;6.72;;;3.63;;
47113;SDS011;32867;51.556;6.832;2023-03-23T05:23:29;6.53;;;3.53;;
47113;SDS011;32867;51.556;6.832;2023-03-23T05:28:40;5.40;;;3.28;;
47113;SDS011;32867;51.556;6.832;2023-03-23T05:33:52;4.57;;;2.90;;
47113;SDS011;32867;51.556;6.832;2023-03-23T05:39:02;5.13;;;3.05;;
47113;SDS011;32867;51.556;6.832;2023-03-23T05:44:14;5.30;;;3.00;;
47113;SDS011;32867;51.556;6.832;2023-03-23T05:49:20;4.95;;;2.78;;
47113;SDS011;32867;51.556;6.832;2023-03-23T05:54:22;4.45;;;2.65;;
47113;SDS011;32867;51.556;6.832;2023-03-23T05:59:24;5.28;;;3.13;;
47113;SDS011;32867;51.556;6.832;2023-03-23T06:04:28;8.52;;;3.38;;
47113;SDS011;32867;51.556;6.832;2023-03-23T06:09:39;5.25;;;2.63;;
47113;SDS011;32867;51.556;6.832;2023-03-23T06:14:59;6.20;;;2.90;;
47113;SDS011;32867;51.556;6.832;2023-03-23T06:20:17;5.05;;;3.00;;
47113;SDS011;32867;51.556;6.832;2023-03-23T06:25:18;6.82;;;3.00;;
47113;SDS011;32867;51.556;6.832;2023-03-23T06:30:19;8.27;;;2.90;;
47113;SDS011;32867;51.556;6.832;2023-03-23T06:35:20;4.93;;;2.85;;
47113;SDS011;32867;51.556;6.832;2023-03-23T06:40:39;4.28;;;2.80;;
47113;SDS011;32867;51.556;6.832;2023-03-23T06:45:41;6.28;;;2.58;;
47113;SDS011;32867;51.556;6.832;2023-03-23T06:51:14;7.00;;;3.50;;
47113;SDS011;32867;51.556;6.832;2023-03-23T06:56:20;6.67;;;3.07;;
47113;SDS011;32867;51.556;6.832;2023-03-23T07:01:21;6.65;;;3.58;;
47113;SDS011;32867;51.556;6.832;2023-03-23T07:06:29;7.72;;;3.40;;
47113;SDS011;32867;51.556;6.832;2023-03-23T07:11:34;7.38;;;3.00;;
47113;SDS011;32867;51.556;6.832;2023-03-23T07:21:42;8.88;;;3.08;;
47113;SDS011;32867;51.556;6.832;2023-03-23T07:26:43;8.93;;;3.03;;
47113;SDS011;32867;51.556;6.832;2023-03-23T07:31:44;7.13;;;2.90;;
47113;SDS011;32867;51.556;6.832;2023-03-23T07:36:45;5.90;;;2.50;;
47113;SDS011;32867;51.556;6.832;2023-03-23T07:41:47;7.43;;;2.90;;
47113;SDS011;32867;51.556;6.832;2023-03-23T07:46:54;6.45;;;2.65;;
47113;SDS011;32867;51.556;6.832;2023-03-23T07:52:03;5.63;;;2.75;;
47113;SDS011;32867;51.556;6.832;2023-03-23T07:57:04;8.50;;;2.88;;
47113;SDS011;32867;51.556;6.832;2023-03-23T08:02:12;7.15;;;2.58;;
47113;SDS011;32867;51.556;6.832;2023-03-23T08:07:32;6.20;;;2.70;;
47113;SDS011;32867;51.556;6.832;2023-03-23T08:12:44;7.18;;;2.60;;
47113;SDS011;32867;51.556;6.832;2023-03-23T08:18:14;5.28;;;2.17;;
47113;SDS011;32867;51.556;6.832;2023-03-23T08:23:33;7.72;;;2.38;;
47113;SDS011;32867;51.556;6.832;2023-03-23T08:28:52;5.25;;;2.35;;
47113;SDS011;32867;51.556;6.832;2023-03-23T08:34:02;4.97;;;2.30;;
47113;SDS011;32867;51.556;6.832;2023-03-23T08:39:30;5.90;;;2.25;;
47113;SDS011;32867;51.556;6.832;2023-03-23T08:44:40;5.53;;;2.15;;
47113;SDS011;32867;51.556;6.832;2023-03-23T08:50:08;7.40;;;2.47;;
47113;SDS011;32867;51.556;6.832;2023-03-23T08:55:26;7.38;;;2.35;;
47113;SDS011;32867;51.556;6.832;2023-03-23T09:00:43;7.20;;;1.90;;
47113;SDS011;32867;51.556;6.832;2023-03-23T09:06:03;6.80;;;2.10;;
47113;SDS011;32867;51.556;6.832;2023-03-23T09:11:18;6.22;;;1.90;;
47113;SDS011;32867;51.556;6.832;2023-03-23T09:16:19;6.90;;;2.40;;
47113;SDS011;32867;51.556;6.832;2023-03-23T09:21:20;4.35;;;1.77;;
47113;SDS011;32867;51.556;6.832;2023-03-23T09:26:21;6.25;;;1.55;;
47113;SDS011;32867;51.556;6.832;2023-03-23T09:31:22;6.68;;;1.52;;
47113;SDS011;32867;51.556;6.832;2023-03-23T09:36:26;5.82;;;1.50;;
47113;SDS011;32867;51.556;6.832;2023-03-23T09:52:09;6.70;;;1.60;;
47113;SDS011;32867;51.556;6.832;2023-03-23T10:07:56;5.47;;;1.40;;
47113;SDS011;32867;51.556;6.832;2023-03-23T10:13:03;4.55;;;1.20;;
47113;SDS011;32867;51.556;6.832;2023-03-23T10:18:21;4.30;;;1.55;;
47113;SDS011;32867;51.556;6.832;2023-03-23T10:28:48;4.93;;;1.40;;
47113;SDS011;32867;51.556;6.832;2023-03-23T10:33:54;2.88;;;1.10;;
47113;SDS011;32867;51.556;6.832;2023-03-23T10:44:09;3.50;;;1.40;;
47113;SDS011;32867;51.556;6.832;2023-03-23T10:49:21;6.45;;;1.60;;
47113;SDS011;32867;51.556;6.832;2023-03-23T10:54:39;4.93;;;1.70;;
47113;SDS011;32867;51.556;6.832;2023-03-23T10:59:47;5.70;;;1.90;;
47113;SDS011;32867;51.556;6.832;2023-03-23T11:04:54;8.02;;;2.78;;
47113;SDS011;32867;51.556;6.832;2023-03-23T11:10:16;6.60;;;2.10;;
47113;SDS011;32867;51.556;6.832;2023-03-23T11:15:27;4.82;;;1.90;;
47113;SDS011;32867;51.556;6.832;2023-03-23T11:20:33;4.55;;;2.22;;
47113;SDS011;32867;51.556;6.832;2023-03-23T11:31:02;3.78;;;1.50;;
47113;SDS011;32867;51.556;6.832;2023-03-23T11:36:06;5.90;;;2.03;;
47113;SDS011;32867;51.556;6.832;2023-03-23T11:41:09;5.63;;;1.60;;
47113;SDS011;32867;51.556;6.832;2023-03-23T11:46:18;4.03;;;1.52;;
47113;SDS011;32867;51.556;6.832;2023-03-23T11:51:42;3.50;;;1.50;;
47113;SDS011;32867;51.556;6.832;2023-03-23T11:56:49;5.68;;;2.08;;
47113;SDS011;32867;51.556;6.832;2023-03-23T12:17:45;3.28;;;1.65;;
47113;SDS011;32867;51.556;6.832;2023-03-23T12:23:08;4.15;;;1.50;;
47113;SDS011;32867;51.556;6.832;2023-03-23T12:44:43;4.68;;;1.83;;
47113;SDS011;32867;51.556;6.832;2023-03-23T12:50:12;4.80;;;1.83;;
47113;SDS011;32867;51.556;6.832;2023-03-23T12:55:23;4.32;;;1.60;;
47113;SDS011;32867;51.556;6.832;2023-03-23T13:00:33;4.57;;;1.70;;
47113;SDS011;32867;51.556;6.832;2023-03-23T13:11:32;3.42;;;1.60;;
47113;SDS011;32867;51.556;6.832;2023-03-23T13:16:40;5.10;;;1.95;;
47113;SDS011;32867;51.556;6.832;2023-03-23T13:21:54;5.90;;;2.05;;
47113;SDS011;32867;51.556;6.832;2023-03-23T13:27:08;3.67;;;1.85;;
47113;SDS011;32867;51.556;6.832;2023-03-23T13:32:18;5.55;;;1.77;;
47113;SDS011;32867;51.556;6.832;2023-03-23T13:42:24;4.88;;;1.90;;
47113;SDS011;32867;51.556;6.832;2023-03-23T13:47:27;9.75;;;2.85;;
47113;SDS011;32867;51.556;6.832;2023-03-23T13:57:48;5.70;;;2.42;;
47113;SDS011;32867;51.556;6.832;2023-03-23T14:08:14;8.82;;;3.05;;
47113;SDS011;32867;51.556;6.832;2023-03-23T14:18:41;5.68;;;2.88;;
47113;SDS011;32867;51.556;6.832;2023-03-23T14:23:48;6.72;;;2.47;;
47113;SDS011;32867;51.556;6.832;2023-03-23T14:28:50;4.53;;;2.35;;
47113;SDS011;32867;51.556;6.832;2023-03-23T14:33:53;7.18;;;2.70;;
47113;SDS011;32867;51.556;6.832;2023-03-23T14:39:05;3.63;;;1.90;;
47113;SDS011;32867;51.556;6.832;2023-03-23T14:44:16;6.38;;;2.58;;
47113;SDS011;32867;51.556;6.832;2023-03-23T14:49:21;5.55;;;2.80;;
47113;SDS011;32867;51.556;6.832;2023-03-23T14:54:31;4.38;;;2.47;;
47113;SDS011;32867;51.556;6.832;2023-03-23T14:59:32;5.32;;;2.40;;
47113;SDS011;32867;51.556;6.832;2023-03-23T15:04:32;4.47;;;2.35;;
47113;SDS011;32867;51.556;6.832;2023-03-23T15:09:33;4.30;;;2.33;;
47113;SDS011;32867;51.556;6.832;2023-03-23T15:14:44;4.30;;;2.07;;
47113;SDS011;32867;51.556;6.832;2023-03-23T15:19:47;5.13;;;2.35;;
47113;SDS011;32867;51.556;6.832;2023-03-23T15:24:50;6.53;;;2.17;;
47113;SDS011;32867;51.556;6.832;2023-03-23T15:29:54;4.53;;;2.00;;
47113;SDS011;32867;51.556;6.832;2023-03-23T15:35:02;4.90;;;1.95;;
47113;SDS011;32867;51.556;6.832;2023-03-23T15:40:21;5.35;;;2.03;;
47113;SDS011;32867;51.556;6.832;2023-03-23T15:45:25;5.18;;;1.92;;
47113;SDS011;32867;51.556;6.832;2023-03-23T15:55:28;5.72;;;1.90;;
47113;SDS011;32867;51.556;6.832;2023-03-23T16:00:35;7.25;;;2.30;;
47113;SDS011;32867;51.556;6.832;2023-03-23T16:05:36;5.68;;;2.20;;
47113;SDS011;32867;51.556;6.832;2023-03-23T16:10:37;5.03;;;2.17;;
47113;SDS011;32867;51.556;6.832;2023-03-23T16:15:38;4.43;;;2.00;;
47113;SDS011;32867;51.556;6.832;2023-03-23T16:20:38;6.75;;;2.58;;
47113;SDS011;32867;51.556;6.832;2023-03-23T16:25:39;7.45;;;3.20;;
47113;SDS011;32867;51.556;6.832;2023-03-23T16:30:40;8.15;;;2.80;;
47113;SDS011;32867;51.556;6.832;2023-03-23T16:35:42;7.43;;;3.13;;
47113;SDS011;32867;51.556;6.832;2023-03-23T16:40:43;5.60;;;2.53;;
47113;SDS011;32867;51.556;6.832;2023-03-23T16:45:45;5.53;;;2.63;;
47113;SDS011;32867;51.556;6.832;2023-03-23T16:50:46;4.97;;;2.17;;
47113;SDS011;32867;51.556;6.832;2023-03-23T16:55:47;7.85;;;2.42;;
47113;SDS011;32867;51.556;6.832;2023-03-23T17:00:51;4.78;;;2.17;;
47113;SDS011;32867;51.556;6.832;2023-03-23T17:05:52;6.45;;;2.60;;
47113;SDS011;32867;51.556;6.832;2023-03-23T17:10:53;5.78;;;2.83;;
47113;SDS011;32867;51.556;6.832;2023-03-23T17:15:54;6.88;;;2.30;;
47113;SDS011;32867;51.556;6.832;2023-03-23T17:20:56;6.90;;;3.15;;
47113;SDS011;32867;51.556;6.832;2023-03-23T17:25:56;7.10;;;2.80;;
47113;SDS011;32867;51.556;6.832;2023-03-23T17:30:57;8.38;;;3.50;;
47113;SDS011;32867;51.556;6.832;2023-03-23T17:35:58;8.15;;;3.55;;
47113;SDS011;32867;51.556;6.832;2023-03-23T17:40:59;8.10;;;3.30;;
47113;SDS011;32867;51.556;6.832;2023-03-23T17:46:00;10.77;;;3.08;;
47113;SDS011;32867;51.556;6.832;2023-03-23T17:51:01;6.95;;;3.13;;
47113;SDS011;32867;51.556;6.832;2023-03-23T17:56:03;7.82;;;2.95;;
47113;SDS011;32867;51.556;6.832;2023-03-23T18:01:04;7.45;;;3.33;;
47113;SDS011;32867;51.556;6.832;2023-03-23T18:06:06;8.60;;;3.35;;
47113;SDS011;32867;51.556;6.832;2023-03-23T18:11:08;8.95;;;3.97;;
47113;SDS011;32867;51.556;6.832;2023-03-23T18:16:09;9.15;;;3.58;;
47113;SDS011;32867;51.556;6.832;2023-03-23T18:21:09;9.70;;;3.50;;
47113;SDS011;32867;51.556;6.832;2023-03-23T18:26:11;9.15;;;3.47;;
47113;SDS011;32867;51.556;6.832;2023-03-23T18:31:13;6.55;;;2.70;;
47113;SDS011;32867;51.556;6.832;2023-03-23T18:36:17;8.82;;;3.03;;
47113;SDS011;32867;51.556;6.832;2023-03-23T18:41:19;8.50;;;2.75;;
47113;SDS011;32867;51.556;6.832;2023-03-23T18:46:20;8.65;;;3.00;;
47113;SDS011;32867;51.556;6.832;2023-03-23T18:51:21;6.13;;;2.42;;
47113;SDS011;32867;51.556;6.832;2023-03-23T18:56:22;6.75;;;2.50;;
47113;SDS011;32867;51.556;6.832;2023-03-23T19:01:22;7.22;;;2.90;;
47113;SDS011;32867;51.556;6.832;2023-03-23T19:06:24;6.25;;;2.38;;
47113;SDS011;32867;51.556;6.832;2023-03-23T19:11:26;9.40;;;3.15;;
47113;SDS011;32867;51.556;6.832;2023-03-23T19:16:27;5.07;;;2.05;;
47113;SDS011;32867;51.556;6.832;2023-03-23T19:21:30;4.18;;;1.90;;
47113;SDS011;32867;51.556;6.832;2023-03-23T19:26:41;6.70;;;2.30;;
47113;SDS011;32867;51.556;6.832;2023-03-23T19:31:42;5.85;;;2.50;;
47113;SDS011;32867;51.556;6.832;2023-03-23T19:36:44;7.25;;;2.67;;
47113;SDS011;32867;51.556;6.832;2023-03-23T19:41:45;6.53;;;2.60;;
47113;SDS011;32867;51.556;6.832;2023-03-23T19:46:47;7.15;;;3.08;;
47113;SDS011;32867;51.556;6.832;2023-03-23T19:51:48;4.80;;;2.25;;
47113;SDS011;32867;51.556;6.832;2023-03-23T19:56:48;7.50;;;2.55;;
47113;SDS011;32867;51.556;6.832;2023-03-23T20:01:49;6.28;;;2.40;;
47113;SDS011;32867;51.556;6.832;2023-03-23T20:06:50;5.93;;;2.15;;
47113;SDS011;32867;51.556;6.832;2023-03-23T20:11:51;6.15;;;2.30;;
47113;SDS011;32867;51.556;6.832;2023-03-23T20:16:52;5.43;;;2.10;;
47113;SDS011;32867;51.556;6.832;2023-03-23T20:21:53;8.07;;;2.95;;
47113;SDS011;32867;51.556;6.832;2023-03-23T20:26:53;6.00;;;2.30;;
47113;SDS011;32867;51.556;6.832;2023-03-23T20:31:54;7.05;;;2.28;;
47113;SDS011;32867;51.556;6.832;2023-03-23T20:36:55;4.60;;;2.20;;
47113;SDS011;32867;51.556;6.832;2023-03-23T20:41:58;5.70;;;2.40;;
47113;SDS011;32867;51.556;6.832;2023-03-23T20:47:01;4.80;;;2.20;;
47113;SDS011;32867;51.556;6.832;2023-03-23T20:52:03;5.43;;;2.38;;
47113;SDS011;32867;51.556;6.832;2023-03-23T20:57:06;7.22;;;2.38;;
47113;SDS011;32867;51.556;6.832;2023-03-23T21:02:09;5.53;;;2.33;;
47113;SDS011;32867;51.556;6.832;2023-03-23T21:07:14;4.18;;;2.03;;
47113;SDS011;32867;51.556;6.832;2023-03-23T21:12:15;6.82;;;2.60;;
47113;SDS011;32867;51.556;6.832;2023-03-23T21:17:16;7.10;;;2.33;;
47113;SDS011;32867;51.556;6.832;2023-03-23T21:22:16;5.43;;;2.08;;
47113;SDS011;32867;51.556;6.832;2023-03-23T21:27:17;7.88;;;2.53;;
47113;SDS011;32867;51.556;6.832;2023-03-23T21:32:18;5.05;;;2.00;;
47113;SDS011;32867;51.556;6.832;2023-03-23T21:37:19;5.50;;;2.33;;
47113;SDS011;32867;51.556;6.832;2023-03-23T21:42:20;5.63;;;2.60;;
47113;SDS011;32867;51.556;6.832;2023-03-23T21:47:29;5.90;;;2.50;;
47113;SDS011;32867;51.556;6.832;2023-03-23T21:52:31;6.45;;;2.55;;
47113;SDS011;32867;51.556;6.832;2023-03-23T21:57:32;6.63;;;2.72;;
47113;SDS011;32867;51.556;6.832;2023-03-23T22:02:33;5.40;;;2.20;;
47113;SDS011;32867;51.556;6.832;2023-03-23T22:07:34;6.50;;;2.30;;
47113;SDS011;32867;51.556;6.832;2023-03-23T22:12:38;5.15;;;2.40;;
47113;SDS011;32867;51.556;6.832;2023-03-23T22:17:38;7.20;;;2.45;;
47113;SDS011;32867;51.556;6.832;2023-03-23T22:22:40;5.60;;;2.42;;
47113;SDS011;32867;51.556;6.832;2023-03-23T22:27:40;6.63;;;2.20;;
47113;SDS011;32867;51.556;6.832;2023-03-23T22:32:41;5.38;;;2.60;;
47113;SDS011;32867;51.556;6.832;2023-03-23T22:37:42;6.80;;;2.90;;
47113;SDS011;32867;51.556;6.832;2023-03-23T22:42:43;5.15;;;2.67;;
47113;SDS011;32867;51.556;6.832;2023-03-23T22:47:44;6.47;;;2.78;;
47113;SDS011;32867;51.556;6.832;2023-03-23T22:52:44;4.85;;;2.35;;
47113;SDS011;32867;51.556;6.832;2023-03-23T22:57:45;6.35;;;2.65;;
47113;SDS011;32867;51.556;6.832;2023-03-23T23:02:46;6.05;;;2.60;;
47113;SDS011;32867;51.556;6.832;2023-03-23T23:07:46;5.72;;;2.53;;
47113;SDS011;32867;51.556;6.832;2023-03-23T23:12:47;6.10;;;2.75;;
47113;SDS011;32867;51.556;6.832;2023-03-23T23:17:48;6.43;;;2.50;;
47113;SDS011;32867;51.556;6.832;2023-03-23T23:22:49;7.00;;;2.50;;
47113;SDS011;32867;51.556;6.832;2023-03-23T23:27:51;5.32;;;2.20;;
47113;SDS011;32867;51.556;6.832;2023-03-23T23:32:52;6.95;;;2.40;;
47113;SDS011;32867;51.556;6.832;2023-03-23T23:37:53;5.25;;;2.10;;
47113;SDS011;32867;51.556;6.832;2023-03-23T23:42:53;5.25;;;2.22;;
47113;SDS011;32867;51.556;6.832;2023-03-23T23:47:54;5.28;;;2.15;;
47113;SDS011;32867;51.556;6.832;2023-03-23T23:52:55;5.22;;;2.30;;
47113;SDS011;32867;51.556;6.832;2023-03-23T23:57:57;3.70;;;1.90;;
